Time;durP1;ratioP1;P1;durP2;ratioP2;P2;SDS_P1;SDS_P2;PMS_P1;PMS_P2;Temp;Humidity;BMP_temperature;BMP_pressure;BME280_temperature;BME280_humidity;BME280_pressure;Samples;Min_cycle;Max_cycle;Signal;HPM_P1;HPM_P2
2021/04/05 00:02:25;;;;;;;6.95;3.33;;;;;;;;;;4998312;28;20041;-82
2021/04/05 00:04:51;;;;;;;6.53;3.50;;;;;;;;;;4997842;28;20053;-73
2021/04/05 00:07:17;;;;;;;6.28;3.63;;;;;;;;;;4998604;28;20030;-83
2021/04/05 00:09:45;;;;;;;7.20;3.67;;;;;;;;;;4998479;28;20431;-78
2021/04/05 00:12:11;;;;;;;6.40;3.42;;;;;;;;;;4998083;28;20454;-80
2021/04/05 00:14:38;;;;;;;7.20;3.50;;;;;;;;;;4998621;28;20510;-80
2021/04/05 00:17:05;;;;;;;6.93;3.47;;;;;;;;;;4980676;28;20369;-77
2021/04/05 00:19:31;;;;;;;6.53;3.30;;;;;;;;;;4997844;28;20546;-77
2021/04/05 00:21:57;;;;;;;6.50;3.28;;;;;;;;;;4980976;28;20030;-85
2021/04/05 00:24:23;;;;;;;8.45;3.78;;;;;;;;;;4999266;28;20106;-80
2021/04/05 00:26:49;;;;;;;8.20;3.20;;;;;;;;;;4998051;28;20475;-80
2021/04/05 00:29:15;;;;;;;8.55;3.88;;;;;;;;;;4985320;28;20392;-79
2021/04/05 00:31:41;;;;;;;8.00;3.70;;;;;;;;;;4978524;28;20085;-77
2021/04/05 00:34:07;;;;;;;7.28;3.65;;;;;;;;;;4976851;28;20085;-77
2021/04/05 00:36:34;;;;;;;7.65;3.70;;;;;;;;;;4992908;28;20027;-90
2021/04/05 00:39:00;;;;;;;9.20;3.60;;;;;;;;;;4982098;28;20077;-76
2021/04/05 00:41:26;;;;;;;6.75;4.00;;;;;;;;;;4998269;28;20018;-77
2021/04/05 00:43:52;;;;;;;7.22;3.80;;;;;;;;;;4998323;28;20109;-79
2021/04/05 00:46:23;;;;;;;5.68;3.08;;;;;;;;;;4998427;28;20022;-75
2021/04/05 00:48:49;;;;;;;7.35;3.60;;;;;;;;;;4997971;28;20109;-76
2021/04/05 00:51:17;;;;;;;5.97;3.05;;;;;;;;;;4998199;28;20542;-74
2021/04/05 00:53:45;;;;;;;6.80;3.33;;;;;;;;;;4980183;28;20169;-75
2021/04/05 00:56:13;;;;;;;6.20;3.55;;;;;;;;;;4994492;28;20479;-76
2021/04/05 00:58:39;;;;;;;6.07;3.33;;;;;;;;;;4995479;28;20034;-77
2021/04/05 01:01:06;;;;;;;5.85;3.30;;;;;;;;;;4995148;28;20550;-76
2021/04/05 01:03:34;;;;;;;7.03;3.88;;;;;;;;;;4977264;28;20033;-77
2021/04/05 01:06:08;;;;;;;6.45;3.47;;;;;;;;;;4994824;28;20011;-78
2021/04/05 01:08:34;;;;;;;5.68;3.03;;;;;;;;;;4977422;28;20080;-78
2021/04/05 01:11:00;;;;;;;6.13;3.20;;;;;;;;;;4995791;28;20113;-78
2021/04/05 01:13:26;;;;;;;6.63;3.63;;;;;;;;;;4976973;28;20030;-77
2021/04/05 01:15:52;;;;;;;6.80;3.00;;;;;;;;;;4994475;28;20491;-79
2021/04/05 01:18:20;;;;;;;7.40;3.53;;;;;;;;;;4994131;28;20039;-78
2021/04/05 01:20:46;;;;;;;5.80;3.10;;;;;;;;;;4994177;28;20521;-77
2021/04/05 01:23:12;;;;;;;7.72;3.28;;;;;;;;;;4994215;28;20109;-76
2021/04/05 01:25:39;;;;;;;6.25;3.38;;;;;;;;;;4994118;28;20037;-78
2021/04/05 01:28:06;;;;;;;6.75;3.38;;;;;;;;;;4973193;28;20023;-74
2021/04/05 01:30:40;;;;;;;5.95;3.20;;;;;;;;;;4974504;28;20035;-76
2021/04/05 01:33:09;;;;;;;6.47;3.20;;;;;;;;;;4974971;28;20027;-77
2021/04/05 01:35:41;;;;;;;7.20;3.72;;;;;;;;;;4974736;28;20023;-78
2021/04/05 01:38:07;;;;;;;6.38;3.45;;;;;;;;;;4974873;28;20029;-73
2021/04/05 01:40:35;;;;;;;6.72;3.40;;;;;;;;;;5013697;28;20026;-74
2021/04/05 01:43:01;;;;;;;7.43;3.25;;;;;;;;;;4993667;28;20144;-79
2021/04/05 01:45:27;;;;;;;6.25;3.25;;;;;;;;;;4994075;28;20053;-82
2021/04/05 01:47:53;;;;;;;7.90;3.63;;;;;;;;;;4993822;28;20027;-78
2021/04/05 01:50:20;;;;;;;7.32;3.55;;;;;;;;;;4976401;28;20625;-82
2021/04/05 01:52:46;;;;;;;6.88;3.72;;;;;;;;;;4976416;28;20054;-82
2021/04/05 01:55:12;;;;;;;5.88;3.40;;;;;;;;;;4993716;28;20030;-79
2021/04/05 01:57:38;;;;;;;5.97;3.60;;;;;;;;;;4993963;28;20034;-80
2021/04/05 02:00:06;;;;;;;7.15;3.65;;;;;;;;;;4993113;28;20431;-76
2021/04/05 02:02:34;;;;;;;6.30;3.10;;;;;;;;;;4976233;28;20030;-75
2021/04/05 02:05:00;;;;;;;7.72;3.50;;;;;;;;;;4993490;28;20106;-76
2021/04/05 02:07:26;;;;;;;5.28;2.83;;;;;;;;;;4993480;28;20030;-79
2021/04/05 02:09:52;;;;;;;6.72;3.58;;;;;;;;;;4976234;28;20089;-82
2021/04/05 02:12:18;;;;;;;7.50;3.30;;;;;;;;;;4994488;28;20101;-85
2021/04/05 02:14:44;;;;;;;6.38;3.10;;;;;;;;;;4994223;28;20037;-81
2021/04/05 02:17:10;;;;;;;5.97;2.88;;;;;;;;;;4976300;28;20123;-83
2021/04/05 02:19:36;;;;;;;7.13;3.50;;;;;;;;;;4992733;28;20050;-82
2021/04/05 02:22:02;;;;;;;6.60;3.25;;;;;;;;;;4992992;28;20022;-83
2021/04/05 02:24:29;;;;;;;7.75;3.47;;;;;;;;;;4993442;28;20026;-80
2021/04/05 02:26:55;;;;;;;8.77;3.78;;;;;;;;;;4993084;28;20022;-77
2021/04/05 02:29:22;;;;;;;7.38;3.30;;;;;;;;;;4993530;28;20514;-76
2021/04/05 02:31:48;;;;;;;5.40;3.00;;;;;;;;;;4992917;28;20022;-75
2021/04/05 02:34:15;;;;;;;7.10;3.40;;;;;;;;;;4992459;28;20046;-75
2021/04/05 02:36:41;;;;;;;5.93;3.22;;;;;;;;;;4992826;28;20026;-77
2021/04/05 02:39:09;;;;;;;5.43;2.97;;;;;;;;;;4992730;28;20514;-82
2021/04/05 02:41:37;;;;;;;6.65;3.10;;;;;;;;;;4992666;28;20510;-77
2021/04/05 02:44:03;;;;;;;6.65;3.30;;;;;;;;;;4992484;28;20040;-77
2021/04/05 02:46:31;;;;;;;7.55;3.42;;;;;;;;;;4992477;28;20032;-77
2021/04/05 02:48:59;;;;;;;7.13;3.47;;;;;;;;;;4974769;28;20038;-77
2021/04/05 02:51:25;;;;;;;9.13;3.53;;;;;;;;;;4992220;28;20061;-77
2021/04/05 02:53:56;;;;;;;6.55;3.67;;;;;;;;;;4992004;28;20032;-75
2021/04/05 02:56:23;;;;;;;7.75;3.60;;;;;;;;;;4992337;28;20026;-76
2021/04/05 02:58:50;;;;;;;7.63;3.35;;;;;;;;;;4975118;28;20023;-77
2021/04/05 03:01:16;;;;;;;6.43;3.40;;;;;;;;;;4974971;28;20030;-75
2021/04/05 03:03:43;;;;;;;6.10;3.42;;;;;;;;;;4992379;28;20105;-77
2021/04/05 03:06:12;;;;;;;6.80;3.47;;;;;;;;;;4992051;28;20072;-76
2021/04/05 03:08:38;;;;;;;7.50;3.40;;;;;;;;;;4992092;28;20026;-76
2021/04/05 03:11:05;;;;;;;6.10;3.22;;;;;;;;;;4992136;28;20057;-76
2021/04/05 03:13:32;;;;;;;8.95;3.10;;;;;;;;;;4991857;28;20030;-76
2021/04/05 03:15:59;;;;;;;6.28;3.20;;;;;;;;;;4974598;28;20348;-76
2021/04/05 03:18:25;;;;;;;6.78;3.45;;;;;;;;;;4991620;28;20534;-77
2021/04/05 03:20:51;;;;;;;8.75;3.92;;;;;;;;;;4992133;28;20042;-77
2021/04/05 03:23:17;;;;;;;7.15;3.63;;;;;;;;;;4991869;28;20023;-76
2021/04/05 03:25:43;;;;;;;7.90;3.38;;;;;;;;;;4991825;28;20030;-74
2021/04/05 03:28:10;;;;;;;7.97;4.00;;;;;;;;;;4987852;28;20109;-77
2021/04/05 03:30:39;;;;;;;7.57;3.85;;;;;;;;;;4972165;28;20038;-76
2021/04/05 03:33:10;;;;;;;8.63;3.83;;;;;;;;;;4972368;28;20476;-76
2021/04/05 03:35:38;;;;;;;8.50;3.90;;;;;;;;;;4972265;28;20022;-76
2021/04/05 03:38:04;;;;;;;6.50;3.50;;;;;;;;;;4972216;28;20027;-76
2021/04/05 03:40:31;;;;;;;7.50;3.70;;;;;;;;;;4971144;28;20023;-76
2021/04/05 03:43:03;;;;;;;9.57;3.92;;;;;;;;;;4981550;28;20023;-76
2021/04/05 03:45:33;;;;;;;7.07;4.20;;;;;;;;;;4991738;28;20023;-77
2021/04/05 03:48:04;;;;;;;8.65;4.30;;;;;;;;;;4991505;28;20491;-76
2021/04/05 03:50:42;;;;;;;7.35;4.00;;;;;;;;;;4991726;28;20403;-76
2021/04/05 03:53:15;;;;;;;6.72;3.78;;;;;;;;;;4972539;28;20027;-76
2021/04/05 03:55:41;;;;;;;8.80;4.30;;;;;;;;;;4972249;28;20031;-74
2021/04/05 03:58:12;;;;;;;9.05;4.10;;;;;;;;;;4972167;28;20114;-76
2021/04/05 04:00:39;;;;;;;7.28;4.20;;;;;;;;;;4987171;28;20077;-76
2021/04/05 04:03:08;;;;;;;6.25;3.50;;;;;;;;;;4974010;28;20431;-76
2021/04/05 04:08:13;;;;;;;7.88;3.92;;;;;;;;;;4991810;28;20126;-75
2021/04/05 04:10:40;;;;;;;7.22;3.90;;;;;;;;;;4991275;28;20039;-75
2021/04/05 04:13:08;;;;;;;7.25;3.72;;;;;;;;;;4991477;28;20490;-76
2021/04/05 04:15:35;;;;;;;6.70;3.72;;;;;;;;;;4991577;28;20467;-76
2021/04/05 04:18:02;;;;;;;7.55;4.40;;;;;;;;;;4991044;28;20038;-77
2021/04/05 04:20:28;;;;;;;6.50;3.60;;;;;;;;;;4991460;28;20030;-76
2021/04/05 04:22:56;;;;;;;8.55;4.13;;;;;;;;;;4991335;28;20034;-76
2021/04/05 04:25:22;;;;;;;7.78;4.00;;;;;;;;;;4991316;28;20019;-74
2021/04/05 04:27:48;;;;;;;7.40;4.30;;;;;;;;;;4991043;28;20037;-75
2021/04/05 04:30:33;;;;;;;7.32;3.72;;;;;;;;;;4992383;28;20436;-76
2021/04/05 04:32:59;;;;;;;7.28;3.78;;;;;;;;;;4977394;28;20411;-76
2021/04/05 04:35:25;;;;;;;7.07;3.88;;;;;;;;;;4977487;28;20447;-76
2021/04/05 04:37:52;;;;;;;7.07;3.60;;;;;;;;;;4994796;28;20022;-74
2021/04/05 04:40:21;;;;;;;7.32;4.03;;;;;;;;;;4994918;28;20026;-76
2021/04/05 04:42:47;;;;;;;8.07;4.07;;;;;;;;;;4994911;28;20027;-76
2021/04/05 04:45:14;;;;;;;6.82;3.60;;;;;;;;;;4994729;28;20018;-76
2021/04/05 04:47:40;;;;;;;10.90;3.95;;;;;;;;;;4994943;28;20022;-76
2021/04/05 04:50:07;;;;;;;8.10;4.07;;;;;;;;;;4994518;28;20050;-77
2021/04/05 04:52:33;;;;;;;5.95;3.55;;;;;;;;;;4994503;28;20030;-76
2021/04/05 04:54:59;;;;;;;7.03;4.05;;;;;;;;;;4976970;28;20447;-76
2021/04/05 04:57:25;;;;;;;7.15;3.97;;;;;;;;;;4977116;28;20031;-75
2021/04/05 04:59:51;;;;;;;7.07;3.90;;;;;;;;;;4976896;28;20490;-76
2021/04/05 05:02:17;;;;;;;9.32;3.70;;;;;;;;;;4976980;28;20023;-74
2021/04/05 05:04:44;;;;;;;9.60;4.45;;;;;;;;;;4994103;28;20077;-76
2021/04/05 05:07:10;;;;;;;8.02;4.00;;;;;;;;;;4976739;28;20022;-75
2021/04/05 05:09:36;;;;;;;9.27;4.70;;;;;;;;;;4994183;28;20097;-77
2021/04/05 05:12:02;;;;;;;7.47;4.03;;;;;;;;;;4994260;28;20062;-77
2021/04/05 05:14:28;;;;;;;8.95;4.82;;;;;;;;;;4994262;28;20081;-75
2021/04/05 05:16:55;;;;;;;7.80;4.68;;;;;;;;;;4994303;28;20029;-77
2021/04/05 05:19:21;;;;;;;9.18;4.45;;;;;;;;;;4994110;28;20043;-77
2021/04/05 05:21:52;;;;;;;7.70;4.20;;;;;;;;;;4976922;28;20509;-76
2021/04/05 05:24:20;;;;;;;8.63;4.65;;;;;;;;;;4976520;28;20502;-76
2021/04/05 05:26:48;;;;;;;7.18;4.22;;;;;;;;;;4976447;28;20084;-76
2021/04/05 05:29:14;;;;;;;8.80;4.70;;;;;;;;;;4972834;28;20069;-76
2021/04/05 05:31:44;;;;;;;8.45;4.78;;;;;;;;;;4974358;28;20111;-76
2021/04/05 05:34:10;;;;;;;10.35;5.07;;;;;;;;;;4956663;28;20022;-76
2021/04/05 05:36:37;;;;;;;8.05;4.60;;;;;;;;;;4956689;28;20034;-74
2021/04/05 05:39:04;;;;;;;8.13;4.88;;;;;;;;;;4956878;28;20406;-76
2021/04/05 05:41:50;;;;;;;14.15;5.63;;;;;;;;;;4962088;28;20011;-76
2021/04/05 05:44:24;;;;;;;10.52;5.45;;;;;;;;;;4953964;28;20046;-75
2021/04/05 05:46:52;;;;;;;8.32;4.88;;;;;;;;;;4976151;28;20030;-75
2021/04/05 05:49:33;;;;;;;10.35;6.15;;;;;;;;;;4993542;28;20479;-75
2021/04/05 05:52:02;;;;;;;10.05;5.47;;;;;;;;;;4993444;28;20030;-76
2021/04/05 05:54:44;;;;;;;10.32;5.47;;;;;;;;;;4976317;28;20109;-76
2021/04/05 05:57:13;;;;;;;11.63;5.80;;;;;;;;;;4976091;28;20033;-76
2021/04/05 05:59:58;;;;;;;12.30;5.85;;;;;;;;;;4975935;28;20026;-76
2021/04/05 06:02:33;;;;;;;10.02;5.57;;;;;;;;;;4993461;28;20479;-76
2021/04/05 06:05:17;;;;;;;9.00;5.35;;;;;;;;;;4993228;28;20030;-75
2021/04/05 06:07:55;;;;;;;11.30;5.50;;;;;;;;;;4993368;28;20053;-76
2021/04/05 06:10:29;;;;;;;10.60;6.15;;;;;;;;;;4975580;28;20038;-74
2021/04/05 06:13:09;;;;;;;9.98;5.32;;;;;;;;;;4993071;28;20026;-74
2021/04/05 06:15:43;;;;;;;9.95;5.60;;;;;;;;;;4992899;28;20030;-74
2021/04/05 06:18:24;;;;;;;10.77;5.40;;;;;;;;;;4971705;28;20787;-73
2021/04/05 06:20:56;;;;;;;11.15;5.72;;;;;;;;;;4972134;28;20049;-74
2021/04/05 06:23:22;;;;;;;9.82;5.40;;;;;;;;;;4973442;28;20090;-74
2021/04/05 06:26:00;;;;;;;10.63;5.60;;;;;;;;;;4973561;28;20027;-74
2021/04/05 06:28:36;;;;;;;11.18;5.93;;;;;;;;;;4967303;28;20020;-74
2021/04/05 06:31:05;;;;;;;9.65;5.30;;;;;;;;;;4954130;29;20042;-74
2021/04/05 06:33:36;;;;;;;10.20;5.13;;;;;;;;;;4967862;28;20638;-74
2021/04/05 06:36:02;;;;;;;10.43;5.15;;;;;;;;;;4973222;28;20018;-74
2021/04/05 06:38:31;;;;;;;11.45;5.47;;;;;;;;;;4973467;28;20027;-75
2021/04/05 06:40:58;;;;;;;8.77;5.13;;;;;;;;;;4971835;28;20460;-75
2021/04/05 06:43:45;;;;;;;10.18;5.70;;;;;;;;;;4971816;28;20117;-75
2021/04/05 06:46:22;;;;;;;17.48;5.78;;;;;;;;;;4973075;28;20384;-75
2021/04/05 06:48:50;;;;;;;9.25;4.97;;;;;;;;;;4972782;28;20035;-75
2021/04/05 06:51:35;;;;;;;10.27;4.75;;;;;;;;;;4973150;28;20499;-77
2021/04/05 06:54:20;;;;;;;8.70;4.63;;;;;;;;;;4970642;28;20018;-74
2021/04/05 06:57:05;;;;;;;7.93;4.38;;;;;;;;;;4972921;28;20019;-75
2021/04/05 06:59:32;;;;;;;8.95;4.68;;;;;;;;;;4971666;28;20069;-74
2021/04/05 07:02:04;;;;;;;7.43;3.53;;;;;;;;;;4971324;28;20030;-74
2021/04/05 07:04:30;;;;;;;6.18;3.30;;;;;;;;;;4972983;28;20027;-75
2021/04/05 07:07:08;;;;;;;6.43;3.30;;;;;;;;;;4971301;28;20030;-74
2021/04/05 07:10:02;;;;;;;5.43;2.95;;;;;;;;;;4971453;28;20134;-76
2021/04/05 07:12:34;;;;;;;5.97;2.67;;;;;;;;;;4972558;28;20090;-74
2021/04/05 07:15:22;;;;;;;7.72;2.90;;;;;;;;;;4971052;28;20026;-77
2021/04/05 07:17:51;;;;;;;5.93;2.53;;;;;;;;;;4972814;28;20094;-76
2021/04/05 07:20:29;;;;;;;5.65;2.50;;;;;;;;;;4974445;28;20039;-77
2021/04/05 07:22:55;;;;;;;6.72;2.95;;;;;;;;;;4974294;28;20390;-74
2021/04/05 07:25:36;;;;;;;4.65;2.25;;;;;;;;;;4991909;28;20476;-75
2021/04/05 07:28:02;;;;;;;5.28;2.50;;;;;;;;;;4989248;28;20034;-75
2021/04/05 07:30:31;;;;;;;6.15;2.65;;;;;;;;;;4972484;28;20061;-75
2021/04/05 07:33:03;;;;;;;6.13;2.45;;;;;;;;;;4972451;28;20033;-75
2021/04/05 07:35:53;;;;;;;5.55;2.03;;;;;;;;;;4972355;28;20018;-74
2021/04/05 07:38:23;;;;;;;5.65;2.58;;;;;;;;;;4972246;28;20027;-75
2021/04/05 07:41:19;;;;;;;4.43;1.92;;;;;;;;;;4976703;28;21216;-74
2021/04/05 07:43:57;;;;;;;4.45;2.00;;;;;;;;;;4963094;28;20043;-75
2021/04/05 07:46:42;;;;;;;4.65;2.13;;;;;;;;;;4971947;28;20468;-76
2021/04/05 07:49:27;;;;;;;4.13;1.92;;;;;;;;;;4987066;28;20047;-75
2021/04/05 07:51:56;;;;;;;3.90;1.58;;;;;;;;;;4972176;28;20472;-76
2021/04/05 07:54:24;;;;;;;4.13;1.70;;;;;;;;;;4972172;28;20022;-76
2021/04/05 07:56:54;;;;;;;4.97;1.90;;;;;;;;;;4971341;28;20023;-75
2021/04/05 07:59:42;;;;;;;4.15;1.88;;;;;;;;;;4971237;28;20423;-74
2021/04/05 08:02:12;;;;;;;6.80;1.83;;;;;;;;;;4971942;28;20022;-75
2021/04/05 08:04:38;;;;;;;3.22;1.70;;;;;;;;;;4974158;28;20065;-74
2021/04/05 08:07:11;;;;;;;5.45;2.03;;;;;;;;;;4976081;28;20026;-75
2021/04/05 08:09:43;;;;;;;4.05;1.90;;;;;;;;;;4958469;28;20485;-76
2021/04/05 08:12:28;;;;;;;7.63;2.30;;;;;;;;;;4958407;28;20027;-75
2021/04/05 08:14:57;;;;;;;8.60;2.42;;;;;;;;;;4984995;28;20113;-77
2021/04/05 08:17:23;;;;;;;6.13;2.10;;;;;;;;;;4977855;28;20498;-76
2021/04/05 08:20:03;;;;;;;7.45;2.28;;;;;;;;;;4977657;28;20047;-75
2021/04/05 08:22:29;;;;;;;4.07;1.65;;;;;;;;;;4977697;28;20029;-76
2021/04/05 08:25:25;;;;;;;10.52;2.33;;;;;;;;;;4995169;28;20039;-75
2021/04/05 08:27:54;;;;;;;5.93;2.53;;;;;;;;;;4993864;28;20014;-77
2021/04/05 08:30:43;;;;;;;6.47;1.90;;;;;;;;;;4975415;28;20031;-77
2021/04/05 08:33:38;;;;;;;5.53;1.80;;;;;;;;;;4950082;28;20041;-76
2021/04/05 08:36:25;;;;;;;8.02;2.05;;;;;;;;;;4941452;28;20036;-76
2021/04/05 08:38:54;;;;;;;5.78;2.40;;;;;;;;;;4976693;28;20022;-77
2021/04/05 08:41:39;;;;;;;3.97;1.88;;;;;;;;;;4977120;28;20023;-76
2021/04/05 08:44:13;;;;;;;4.82;1.92;;;;;;;;;;4977055;28;20415;-76
2021/04/05 08:46:39;;;;;;;4.28;1.92;;;;;;;;;;4994711;28;20026;-75
2021/04/05 08:49:08;;;;;;;4.75;1.83;;;;;;;;;;4976963;28;20122;-75
2021/04/05 08:51:42;;;;;;;3.78;1.85;;;;;;;;;;4994678;28;20069;-76
2021/04/05 08:54:09;;;;;;;4.00;1.65;;;;;;;;;;4994452;28;20029;-76
2021/04/05 08:56:38;;;;;;;6.22;1.90;;;;;;;;;;4994571;28;20034;-74
2021/04/05 08:59:18;;;;;;;4.38;1.98;;;;;;;;;;4994441;28;20025;-75
2021/04/05 09:01:50;;;;;;;3.83;1.85;;;;;;;;;;4994163;28;20022;-75
2021/04/05 09:04:20;;;;;;;4.10;1.67;;;;;;;;;;4976442;28;20023;-76
2021/04/05 09:06:51;;;;;;;6.50;1.80;;;;;;;;;;4994255;28;20018;-76
2021/04/05 09:09:18;;;;;;;5.57;1.77;;;;;;;;;;4976993;28;20111;-75
2021/04/05 09:11:45;;;;;;;3.58;1.70;;;;;;;;;;4977030;28;20160;-78
2021/04/05 09:14:12;;;;;;;10.85;2.15;;;;;;;;;;4994128;28;20027;-77
2021/04/05 09:17:11;;;;;;;6.20;1.80;;;;;;;;;;4993469;28;20026;-76
2021/04/05 09:19:37;;;;;;;7.90;1.88;;;;;;;;;;4973123;28;20054;-82
2021/04/05 09:22:15;;;;;;;3.17;1.40;;;;;;;;;;4974568;28;20019;-79
2021/04/05 09:24:50;;;;;;;2.67;1.27;;;;;;;;;;4973993;28;20086;-84
2021/04/05 09:27:25;;;;;;;3.67;1.60;;;;;;;;;;4975021;28;20030;-80
2021/04/05 09:29:58;;;;;;;3.60;1.40;;;;;;;;;;4969868;28;20042;-78
2021/04/05 09:32:49;;;;;;;5.18;1.27;;;;;;;;;;4955272;28;20671;-84
2021/04/05 09:35:24;;;;;;;3.47;1.33;;;;;;;;;;4955613;29;20476;-84
2021/04/05 09:38:09;;;;;;;4.68;1.23;;;;;;;;;;4955946;29;20026;-81
2021/04/05 09:40:38;;;;;;;3.45;1.35;;;;;;;;;;4966117;28;20046;-85
2021/04/05 09:43:04;;;;;;;4.47;1.27;;;;;;;;;;4956478;29;20024;-81
2021/04/05 09:45:30;;;;;;;4.00;1.67;;;;;;;;;;4970939;28;20028;-88
2021/04/05 09:48:05;;;;;;;3.05;1.33;;;;;;;;;;4971916;28;20034;-84
2021/04/05 09:50:50;;;;;;;2.30;1.00;;;;;;;;;;4970846;28;20529;-79
2021/04/05 09:53:22;;;;;;;3.35;1.27;;;;;;;;;;4954896;29;20028;-76
2021/04/05 09:55:49;;;;;;;8.70;1.38;;;;;;;;;;4955091;28;20027;-74
2021/04/05 09:58:24;;;;;;;2.92;1.10;;;;;;;;;;4973531;28;20023;-76
2021/04/05 10:01:11;;;;;;;2.45;1.05;;;;;;;;;;4972871;28;20123;-81
2021/04/05 10:03:44;;;;;;;4.13;1.08;;;;;;;;;;4974143;28;20026;-87
2021/04/05 10:06:18;;;;;;;3.78;1.10;;;;;;;;;;4973925;28;20031;-77
2021/04/05 10:08:45;;;;;;;5.50;1.30;;;;;;;;;;4975043;28;20102;-83
2021/04/05 10:11:12;;;;;;;8.88;1.10;;;;;;;;;;4974286;28;20038;-83
2021/04/05 10:13:45;;;;;;;2.90;1.10;;;;;;;;;;4972705;28;20105;-81
2021/04/05 10:16:12;;;;;;;1.80;0.90;;;;;;;;;;4972526;28;20408;-82
2021/04/05 10:18:45;;;;;;;5.53;1.20;;;;;;;;;;4972338;28;20138;-79
2021/04/05 10:21:11;;;;;;;2.15;0.98;;;;;;;;;;4973957;28;20476;-86
2021/04/05 10:23:38;;;;;;;3.25;1.15;;;;;;;;;;4973837;28;20115;-79
2021/04/05 10:26:04;;;;;;;4.88;1.15;;;;;;;;;;4974085;28;20106;-80
2021/04/05 10:28:32;;;;;;;3.65;1.20;;;;;;;;;;4968787;28;20043;-80
2021/04/05 10:30:59;;;;;;;2.15;0.98;;;;;;;;;;4963782;28;20483;-81
2021/04/05 10:33:30;;;;;;;7.82;1.02;;;;;;;;;;4972797;28;20443;-84
2021/04/05 10:35:59;;;;;;;2.65;1.08;;;;;;;;;;4973819;28;20029;-77
2021/04/05 10:38:28;;;;;;;1.13;0.63;;;;;;;;;;4972162;28;20027;-77
2021/04/05 10:40:54;;;;;;;2.55;1.00;;;;;;;;;;4974072;28;20029;-77
2021/04/05 10:43:26;;;;;;;3.25;0.90;;;;;;;;;;4973229;28;20029;-80
2021/04/05 10:46:00;;;;;;;2.65;0.90;;;;;;;;;;4974302;28;20027;-76
2021/04/05 10:48:32;;;;;;;2.50;1.00;;;;;;;;;;4972442;28;20054;-81
2021/04/05 10:50:59;;;;;;;5.03;0.88;;;;;;;;;;4971966;28;20030;-88
2021/04/05 10:53:26;;;;;;;2.03;1.02;;;;;;;;;;4973293;28;20558;-79
2021/04/05 10:55:55;;;;;;;5.38;1.00;;;;;;;;;;4972804;28;20033;-76
2021/04/05 10:58:26;;;;;;;2.45;0.98;;;;;;;;;;4971978;28;20051;-76
2021/04/05 11:00:54;;;;;;;3.27;1.00;;;;;;;;;;4973448;28;20031;-78
2021/04/05 11:03:22;;;;;;;2.92;0.93;;;;;;;;;;4971969;28;20266;-78
2021/04/05 11:05:51;;;;;;;1.33;0.63;;;;;;;;;;4971608;28;20027;-76
2021/04/05 11:08:18;;;;;;;2.90;1.10;;;;;;;;;;4972874;28;20034;-78
2021/04/05 11:10:45;;;;;;;2.83;1.02;;;;;;;;;;4972912;28;20034;-77
2021/04/05 11:13:21;;;;;;;2.33;0.90;;;;;;;;;;4974079;28;20018;-89
2021/04/05 11:15:48;;;;;;;3.53;1.05;;;;;;;;;;4974707;28;20034;-86
2021/04/05 11:18:16;;;;;;;1.77;0.85;;;;;;;;;;4971575;28;20561;-75
2021/04/05 11:20:43;;;;;;;4.35;1.00;;;;;;;;;;4971358;28;20550;-77
2021/04/05 11:23:13;;;;;;;1.35;0.70;;;;;;;;;;4972423;28;20476;-77
2021/04/05 11:25:47;;;;;;;1.52;0.80;;;;;;;;;;4972958;28;20031;-81
2021/04/05 11:28:23;;;;;;;4.82;1.13;;;;;;;;;;4968297;28;20027;-80
2021/04/05 11:30:55;;;;;;;4.25;0.80;;;;;;;;;;4953689;28;20035;-82
2021/04/05 11:33:25;;;;;;;2.35;0.98;;;;;;;;;;4968863;28;20567;-78
2021/04/05 11:35:52;;;;;;;2.83;1.10;;;;;;;;;;4953623;29;20097;-78
2021/04/05 11:38:19;;;;;;;3.17;0.95;;;;;;;;;;4956838;28;20081;-79
2021/04/05 11:40:47;;;;;;;1.90;0.80;;;;;;;;;;4972912;28;20029;-79
2021/04/05 11:43:18;;;;;;;2.08;0.90;;;;;;;;;;4971919;28;20061;-81
2021/04/05 11:45:47;;;;;;;2.28;0.93;;;;;;;;;;4971738;28;20392;-83
2021/04/05 11:48:16;;;;;;;2.63;0.88;;;;;;;;;;4971887;28;20547;-81
2021/04/05 11:50:43;;;;;;;5.68;0.88;;;;;;;;;;4973025;28;20035;-77
2021/04/05 11:53:10;;;;;;;2.90;1.08;;;;;;;;;;4971614;28;20023;-87
2021/04/05 11:55:39;;;;;;;3.40;1.00;;;;;;;;;;4971623;28;20038;-83
2021/04/05 11:58:12;;;;;;;2.58;0.80;;;;;;;;;;4972112;28;20030;-79
2021/04/05 12:00:38;;;;;;;2.60;0.90;;;;;;;;;;4972743;28;20023;-80
2021/04/05 12:03:09;;;;;;;2.17;0.95;;;;;;;;;;4972479;28;20026;-78
2021/04/05 12:05:40;;;;;;;1.20;0.70;;;;;;;;;;4972392;28;20019;-87
2021/04/05 12:08:09;;;;;;;1.70;0.88;;;;;;;;;;4973143;28;20027;-89
2021/04/05 12:10:37;;;;;;;3.35;1.10;;;;;;;;;;4972941;28;20031;-88
2021/04/05 12:13:15;;;;;;;2.28;0.70;;;;;;;;;;4976525;28;20022;-90
2021/04/05 12:15:43;;;;;;;2.63;1.10;;;;;;;;;;4972732;28;20103;-86
2021/04/05 12:18:09;;;;;;;3.70;1.00;;;;;;;;;;4976298;28;20051;-82
2021/04/05 12:20:35;;;;;;;2.15;0.80;;;;;;;;;;4991724;28;20050;-82
2021/04/05 12:23:07;;;;;;;2.47;1.00;;;;;;;;;;4975114;28;20033;-81
2021/04/05 12:25:35;;;;;;;9.82;1.33;;;;;;;;;;4974954;28;20027;-84
2021/04/05 12:28:03;;;;;;;2.67;1.00;;;;;;;;;;4971431;28;20038;-76
2021/04/05 12:30:30;;;;;;;2.35;0.95;;;;;;;;;;4985572;28;20038;-76
2021/04/05 12:32:57;;;;;;;2.30;1.05;;;;;;;;;;4991731;28;20019;-78
2021/04/05 12:35:24;;;;;;;3.83;1.00;;;;;;;;;;4974447;28;20030;-76
2021/04/05 12:37:57;;;;;;;2.88;1.00;;;;;;;;;;4991545;28;20022;-75
2021/04/05 12:40:25;;;;;;;3.25;0.93;;;;;;;;;;4973546;28;20037;-77
2021/04/05 12:42:51;;;;;;;1.98;0.90;;;;;;;;;;4973817;28;20050;-79
2021/04/05 12:45:17;;;;;;;1.95;1.02;;;;;;;;;;4973920;28;20062;-76
2021/04/05 12:47:45;;;;;;;2.40;1.00;;;;;;;;;;4990942;28;20022;-77
2021/04/05 12:50:16;;;;;;;3.13;1.10;;;;;;;;;;4990625;28;20113;-78
2021/04/05 12:52:43;;;;;;;3.00;0.98;;;;;;;;;;4994753;28;20101;-80
2021/04/05 12:55:10;;;;;;;2.33;1.05;;;;;;;;;;4995553;28;20534;-82
2021/04/05 12:57:37;;;;;;;2.45;0.90;;;;;;;;;;4995854;28;20029;-77
2021/04/05 13:00:12;;;;;;;3.85;1.30;;;;;;;;;;4978420;28;20092;-77
2021/04/05 13:02:39;;;;;;;3.33;1.48;;;;;;;;;;4977047;28;20121;-77
2021/04/05 13:05:43;;;;;;;3.22;1.00;;;;;;;;;;4977070;28;20022;-76
2021/04/05 13:08:22;;;;;;;2.20;1.02;;;;;;;;;;4914756;29;20075;-79
2021/04/05 13:11:20;;;;;;;3.58;1.60;;;;;;;;;;4914094;29;20040;-82
2021/04/05 13:13:51;;;;;;;4.68;1.85;;;;;;;;;;4907493;28;20129;-80
2021/04/05 13:16:18;;;;;;;3.45;1.23;;;;;;;;;;4974729;28;20031;-80
2021/04/05 13:18:47;;;;;;;2.97;1.00;;;;;;;;;;4974922;28;20061;-76
2021/04/05 13:21:14;;;;;;;2.65;1.23;;;;;;;;;;4986098;28;20383;-77
2021/04/05 13:23:44;;;;;;;2.35;0.95;;;;;;;;;;4976571;28;20030;-75
2021/04/05 13:26:13;;;;;;;2.97;1.42;;;;;;;;;;4994121;28;20487;-78
2021/04/05 13:28:42;;;;;;;4.72;1.90;;;;;;;;;;4978275;28;20042;-84
2021/04/05 13:31:09;;;;;;;4.43;1.20;;;;;;;;;;4995337;28;20081;-82
2021/04/05 13:33:37;;;;;;;4.95;1.92;;;;;;;;;;4994916;28;20036;-81
2021/04/05 13:36:11;;;;;;;4.38;1.60;;;;;;;;;;4994093;28;20022;-78
2021/04/05 13:38:38;;;;;;;5.80;1.58;;;;;;;;;;4977090;28;20022;-76
2021/04/05 13:41:11;;;;;;;3.75;1.60;;;;;;;;;;4994344;28;20019;-85
2021/04/05 13:43:39;;;;;;;4.35;1.85;;;;;;;;;;4976536;28;20561;-74
2021/04/05 13:46:09;;;;;;;3.10;1.70;;;;;;;;;;4991362;28;20411;-76
2021/04/05 13:48:36;;;;;;;5.07;1.90;;;;;;;;;;4975731;28;20026;-88
2021/04/05 13:51:03;;;;;;;4.45;1.88;;;;;;;;;;4974946;28;20066;-77
2021/04/05 13:53:30;;;;;;;4.45;1.42;;;;;;;;;;4974196;28;20074;-77
2021/04/05 13:55:57;;;;;;;4.22;1.35;;;;;;;;;;4991030;28;20058;-87
2021/04/05 13:58:31;;;;;;;3.65;1.65;;;;;;;;;;4979006;28;20080;-84
2021/04/05 14:01:00;;;;;;;3.95;1.55;;;;;;;;;;4995479;28;20014;-79
2021/04/05 14:03:29;;;;;;;5.53;1.75;;;;;;;;;;4993104;28;20030;-76
2021/04/05 14:05:56;;;;;;;4.50;1.60;;;;;;;;;;4993903;28;20026;-73
2021/04/05 14:08:23;;;;;;;6.45;2.00;;;;;;;;;;4993708;28;20072;-74
2021/04/05 14:11:07;;;;;;;5.38;1.63;;;;;;;;;;4993694;28;20031;-76
2021/04/05 14:13:34;;;;;;;4.47;1.60;;;;;;;;;;4972899;28;20062;-77
2021/04/05 14:16:01;;;;;;;3.95;1.80;;;;;;;;;;4973670;28;20019;-72
2021/04/05 14:18:34;;;;;;;3.30;1.60;;;;;;;;;;4989318;28;20042;-82
2021/04/05 14:21:00;;;;;;;3.65;1.40;;;;;;;;;;4993832;28;20030;-79
2021/04/05 14:23:27;;;;;;;5.40;1.90;;;;;;;;;;4975850;28;20081;-79
2021/04/05 14:25:55;;;;;;;3.22;1.30;;;;;;;;;;4993262;28;20101;-79
2021/04/05 14:28:25;;;;;;;3.47;1.33;;;;;;;;;;4992334;28;20014;-80
2021/04/05 14:30:55;;;;;;;3.90;1.40;;;;;;;;;;4975782;28;20518;-77
2021/04/05 14:33:32;;;;;;;6.68;1.70;;;;;;;;;;4993067;28;20424;-75
2021/04/05 14:36:01;;;;;;;3.00;1.38;;;;;;;;;;4993212;28;20035;-75
2021/04/05 14:38:29;;;;;;;2.90;1.30;;;;;;;;;;4993249;28;20077;-75
2021/04/05 14:40:57;;;;;;;4.85;1.67;;;;;;;;;;4992944;28;20026;-85
2021/04/05 14:43:32;;;;;;;3.30;1.58;;;;;;;;;;4992948;28;20037;-79
2021/04/05 14:46:01;;;;;;;4.20;1.52;;;;;;;;;;4992519;28;20019;-74
2021/04/05 14:48:28;;;;;;;3.75;1.45;;;;;;;;;;4975428;28;20068;-80
2021/04/05 14:50:54;;;;;;;3.92;1.73;;;;;;;;;;4993152;28;20034;-77
2021/04/05 14:53:28;;;;;;;10.68;2.17;;;;;;;;;;4993861;28;20091;-81
2021/04/05 14:55:55;;;;;;;5.03;1.77;;;;;;;;;;4974693;28;20117;-80
2021/04/05 14:58:25;;;;;;;7.35;1.67;;;;;;;;;;4975050;28;20026;-78
2021/04/05 15:00:54;;;;;;;4.38;1.65;;;;;;;;;;4975419;28;20030;-79
2021/04/05 15:03:31;;;;;;;6.20;1.80;;;;;;;;;;4993130;28;20031;-76
2021/04/05 15:05:59;;;;;;;3.28;1.35;;;;;;;;;;4992721;28;20018;-81